Date,TemperatureHighF,TemperatureAvgF,TemperatureLowF,DewpointHighF,DewpointAvgF,DewpointLowF,HumidityHigh,HumidityAvg,HumidityLow,PressureMaxIn,PressureMinIn,WindSpeedMaxMPH,WindSpeedAvgMPH,GustSpeedMaxMPH,PrecipitationSumIn
2014-1-1,37.4,30.6,25.4,30.9,27.4,23.9,94,88,76,30.10,29.94,2,0,2,0.01
2014-1-2,35.3,30.9,27.0,33.7,28.9,25.0,94,92,88,30.05,29.51,4,0,4,0.00
2014-1-3,39.8,34.3,26.8,36.9,30.7,24.6,93,87,68,29.77,29.36,6,1,6,0.15
2014-1-4,29.0,24.3,16.9,27.2,21.3,13.6,93,88,82,30.03,29.76,1,0,1,0.00
2014-1-5,15.8,11.6,6.1,11.8,5.4,-0.4,84,76,68,30.34,30.05,6,1,6,0.00
2014-1-6,20.5,11.8,2.7,13.5,6.8,-1.4,85,80,73,30.26,29.95,2,0,2,0.00
2014-1-7,27.4,20.1,14.9,20.4,15.6,11.0,87,82,73,29.95,29.80,1,0,1,0.00
2014-1-8,28.3,25.8,22.7,26.0,23.1,19.4,92,89,87,29.80,29.52,0,0,0,0.00
2014-1-9,38.0,33.2,27.7,33.7,29.0,25.4,95,85,71,29.60,29.43,4,1,4,0.19
2014-1-10,38.2,34.0,29.9,33.5,30.6,26.3,94,88,77,29.65,29.44,2,1,2,0.09
2014-1-11,43.4,39.5,35.3,37.9,32.8,27.7,92,78,57,29.60,29.13,5,2,5,0.11
2014-1-12,39.1,36.4,34.4,30.4,28.1,24.2,81,72,57,29.68,29.19,7,1,7,0.00
2014-1-13,47.9,41.6,37.8,33.9,32.6,30.4,79,71,51,30.05,29.64,7,1,7,0.00
2014-1-14,41.8,38.4,31.0,33.7,31.6,27.9,89,77,67,30.26,30.05,3,1,3,0.00
2014-1-15,44.8,36.5,28.4,32.5,29.2,25.7,90,75,56,30.15,30.03,3,1,3,0.00
2014-1-16,43.0,32.1,26.6,34.3,26.9,22.4,91,81,60,30.23,30.10,1,0,1,0.00
2014-1-17,41.4,28.3,19.1,33.7,23.5,16.6,92,83,64,30.10,30.02,1,0,1,0.00
2014-1-18,35.6,25.3,18.2,29.4,21.6,15.9,92,86,74,30.10,29.90,1,0,1,0.00
2014-1-19,28.8,25.7,19.8,27.0,24.0,17.6,94,93,90,30.04,29.84,2,0,2,0.00
2014-1-20,32.0,22.7,14.0,27.8,19.5,11.7,92,87,78,30.23,30.05,2,0,2,0.00
2014-1-21,26.3,24.5,23.2,24.0,22.6,21.6,94,93,91,30.18,30.04,2,0,2,0.00
2014-1-22,33.8,26.1,21.4,29.7,23.6,18.9,93,90,84,30.18,29.98,1,0,1,0.00
2014-1-23,34.2,29.0,25.2,30.6,26.7,23.0,93,91,87,30.27,30.18,1,0,1,0.00
2014-1-24,34.4,31.1,29.3,30.8,29.0,27.5,94,92,85,30.28,30.21,1,0,1,0.00
2014-1-25,33.8,31.4,30.1,29.7,28.9,27.8,93,90,85,30.23,29.97,1,0,1,0.00
2014-1-26,32.9,30.0,26.6,30.9,25.2,17.8,94,83,66,30.01,29.93,3,1,3,0.00
2014-1-27,31.3,22.1,13.7,21.2,14.7,9.7,84,73,62,30.10,30.00,2,0,2,0.01
2014-1-28,29.2,23.5,12.6,20.4,16.6,8.6,85,75,63,30.08,29.84,2,0,2,0.00
2014-1-29,30.2,27.2,25.2,27.2,23.7,20.2,91,86,77,29.84,29.39,1,0,1,0.00
2014-1-30,27.2,19.7,15.5,23.5,14.6,11.4,87,80,74,29.70,29.44,6,2,6,0.00
2014-1-31,25.4,15.0,4.5,18.0,10.4,0.6,86,82,73,29.79,29.65,1,0,1,0.00